createdAt,value
2023-01-06T00:01:05.950Z,101121.94
2023-01-06T00:03:32.783Z,101117.19
2023-01-06T00:06:03.875Z,101124.34
2023-01-06T00:08:30.768Z,101117.69
2023-01-06T00:10:57.661Z,101104.56
2023-01-06T00:13:24.285Z,101107.31
2023-01-06T00:15:50.749Z,101102.84
2023-01-06T00:18:19.491Z,101104.75
2023-01-06T00:20:45.911Z,101097.59
2023-01-06T00:23:12.459Z,101099.81
2023-01-06T00:25:49.624Z,101098.09
2023-01-06T00:28:16.074Z,101090.63
2023-01-06T00:30:42.615Z,101086.31
2023-01-06T00:33:09.679Z,101084.13
2023-01-06T00:35:36.103Z,101078.84
2023-01-06T00:38:02.799Z,101077.84
2023-01-06T00:40:29.676Z,101084.47
2023-01-06T00:42:56.095Z,101084.47
2023-01-06T00:45:22.512Z,101083.78
2023-01-06T00:47:51.060Z,101090.25
2023-01-06T00:50:17.422Z,101099.97
2023-01-06T00:52:43.984Z,101098.09
2023-01-06T00:55:10.668Z,101091.47
2023-01-06T00:57:39.100Z,101089.59
2023-01-06T01:00:07.583Z,101089.59
2023-01-06T01:02:34.485Z,101089.59
2023-01-06T01:05:01.365Z,101082.06
2023-01-06T01:07:27.828Z,101090.25
2023-01-06T01:09:54.202Z,101086.00
2023-01-06T01:12:20.635Z,101082.44
2023-01-06T01:14:59.806Z,101084.81
2023-01-06T01:17:29.337Z,101074.41
2023-01-06T01:19:57.741Z,101074.56
2023-01-06T01:22:26.095Z,101080.56
2023-01-06T01:24:55.129Z,101073.22
2023-01-06T01:27:21.559Z,101067.44
2023-01-06T01:29:48.011Z,101078.84
2023-01-06T01:32:14.561Z,101079.00
2023-01-06T01:34:43.513Z,101073.56
2023-01-06T01:37:10.004Z,101070.84
2023-01-06T01:39:36.532Z,101069.31
2023-01-06T01:42:03.055Z,101071.34
2023-01-06T01:44:59.565Z,101069.81
2023-01-06T01:47:28.931Z,101065.03
2023-01-06T01:50:01.565Z,101072.88
2023-01-06T01:52:29.300Z,101072.88
2023-01-06T01:54:56.745Z,101069.13
2023-01-06T01:57:30.639Z,101067.09
2023-01-06T01:59:58.467Z,101070.16
2023-01-06T02:02:31.344Z,101068.97
2023-01-06T02:05:00.275Z,101074.22
2023-01-06T02:07:27.804Z,101073.91
2023-01-06T02:10:02.292Z,101065.38
2023-01-06T02:12:29.185Z,101071.84
2023-01-06T02:14:55.560Z,101074.22
2023-01-06T02:17:26.569Z,101079.38
2023-01-06T02:20:31.276Z,101076.28
2023-01-06T02:23:24.113Z,101076.63
2023-01-06T02:26:32.269Z,101069.81
2023-01-06T02:29:13.849Z,101071.69
2023-01-06T02:31:50.331Z,101065.72
2023-01-06T02:34:41.863Z,101070.66
2023-01-06T02:37:23.484Z,101065.19
2023-01-06T02:40:08.548Z,101063.84
2023-01-06T02:42:57.542Z,101048.00
2023-01-06T02:45:33.625Z,101056.34
2023-01-06T02:48:10.008Z,101049.69
2023-01-06T02:50:55.507Z,101051.41
2023-01-06T02:53:29.068Z,101043.56
2023-01-06T02:55:59.989Z,101056.34
2023-01-06T02:58:47.231Z,101049.38
2023-01-06T03:01:21.174Z,101051.41
2023-01-06T03:03:50.156Z,101050.75
2023-01-06T03:06:25.455Z,101052.25
2023-01-06T03:08:56.109Z,101053.47
2023-01-06T03:11:28.459Z,101057.03
2023-01-06T03:13:57.796Z,101057.19
2023-01-06T03:16:24.597Z,101048.00
2023-01-06T03:18:52.813Z,101051.75
2023-01-06T03:21:23.181Z,101051.59
2023-01-06T03:23:49.824Z,101045.44
2023-01-06T03:26:16.533Z,101047.66
2023-01-06T03:28:45.606Z,101044.28
2023-01-06T03:31:28.064Z,101050.72
2023-01-06T03:34:14.619Z,101045.63
2023-01-06T03:36:56.384Z,101043.56
2023-01-06T03:39:50.038Z,101039.16
2023-01-06T03:42:50.492Z,101040.13
2023-01-06T03:45:35.287Z,101040.81
2023-01-06T03:48:22.814Z,101042.19
2023-01-06T03:51:02.023Z,101032.63
2023-01-06T03:53:43.418Z,101038.59
2023-01-06T03:56:33.574Z,101039.81
2023-01-06T03:59:07.174Z,101032.63
2023-01-06T04:01:34.689Z,101028.03
2023-01-06T04:04:02.199Z,101034.50
2023-01-06T04:06:28.930Z,101029.72
2023-01-06T04:08:55.627Z,101034.88
2023-01-06T04:11:40.668Z,101032.81
2023-01-06T04:14:07.049Z,101027.34
2023-01-06T04:16:35.744Z,101024.28
2023-01-06T04:19:02.559Z,101026.16
2023-01-06T04:21:29.130Z,101021.06
2023-01-06T04:23:57.619Z,101016.97
2023-01-06T04:26:24.164Z,101004.88
2023-01-06T04:28:50.753Z,101019.69
2023-01-06T04:31:20.151Z,101012.38
2023-01-06T04:33:47.370Z,101003.00
2023-01-06T04:36:14.464Z,101011.06
2023-01-06T04:38:43.393Z,101001.50
2023-01-06T04:41:10.492Z,100992.13
2023-01-06T04:43:41.595Z,100992.31
2023-01-06T04:46:08.392Z,100985.31
2023-01-06T04:48:35.009Z,100984.97
2023-01-06T04:51:03.469Z,100988.00
2023-01-06T04:53:29.902Z,100987.69
2023-01-06T04:55:56.344Z,100980.53
2023-01-06T04:58:22.718Z,100981.19
2023-01-06T05:00:49.244Z,100989.06
2023-01-06T05:03:15.716Z,100979.53
2023-01-06T05:05:42.099Z,100985.63
2023-01-06T05:08:10.791Z,100981.56
2023-01-06T05:10:37.445Z,100984.97
2023-01-06T05:13:03.945Z,100976.78
2023-01-06T05:15:32.539Z,100977.50
2023-01-06T05:17:59.149Z,100973.56
2023-01-06T05:20:25.609Z,100982.25
2023-01-06T05:22:51.991Z,100983.44
2023-01-06T05:25:18.473Z,100980.56
2023-01-06T05:27:44.932Z,100984.97
2023-01-06T05:30:12.033Z,100994.84
2023-01-06T05:32:39.821Z,100993.00
2023-01-06T05:35:09.387Z,100991.13
2023-01-06T05:37:35.856Z,100994.84
2023-01-06T05:40:02.269Z,101001.16
2023-01-06T05:42:28.623Z,101002.03
2023-01-06T05:44:55.055Z,101001.66
2023-01-06T05:47:23.800Z,101007.47
2023-01-06T05:49:50.181Z,101019.22
2023-01-06T05:52:16.729Z,101002.03
2023-01-06T05:54:43.094Z,101017.00
2023-01-06T05:57:13.505Z,101013.78
2023-01-06T05:59:39.941Z,101012.06
2023-01-06T06:02:06.861Z,101016.66
2023-01-06T06:04:35.351Z,101011.88
2023-01-06T06:07:01.757Z,101019.22
2023-01-06T06:09:28.273Z,101012.91
2023-01-06T06:11:55.220Z,101007.13
2023-01-06T06:14:21.940Z,101010.88
2023-01-06T06:16:48.783Z,101013.59
2023-01-06T06:19:15.376Z,101013.78
2023-01-06T06:21:44.603Z,101015.66
2023-01-06T06:24:11.122Z,101023.31
2023-01-06T06:26:37.503Z,101020.75
2023-01-06T06:29:06.142Z,101027.06
2023-01-06T06:31:36.048Z,101031.66
2023-01-06T06:34:04.871Z,101027.22
2023-01-06T06:36:31.872Z,101026.91
2023-01-06T06:38:58.557Z,101028.94
2023-01-06T06:41:28.255Z,101027.06
2023-01-06T06:43:57.037Z,101032.84
2023-01-06T06:46:29.287Z,101030.13
2023-01-06T06:48:55.604Z,101032.00
2023-01-06T06:51:22.865Z,101034.03
2023-01-06T06:53:50.083Z,101039.81
2023-01-06T06:56:23.712Z,101038.66
2023-01-06T06:58:52.574Z,101048.34
2023-01-06T07:01:21.217Z,101044.44
2023-01-06T07:03:50.766Z,101044.28
2023-01-06T07:06:28.841Z,101047.00
2023-01-06T07:08:55.492Z,101051.75
2023-01-06T07:11:22.017Z,101050.72
2023-01-06T07:13:51.218Z,101056.34
2023-01-06T07:16:18.259Z,101061.28
2023-01-06T07:18:44.928Z,101074.56
2023-01-06T07:21:12.458Z,101077.44
2023-01-06T07:23:38.821Z,101074.38
2023-01-06T07:26:07.730Z,101073.00
2023-01-06T07:28:36.438Z,101079.63
2023-01-06T07:31:03.296Z,101076.56
2023-01-06T07:33:29.864Z,101083.19
2023-01-06T07:35:57.311Z,101082.66
2023-01-06T07:38:24.978Z,101090.16
2023-01-06T07:40:51.656Z,101090.31
2023-01-06T07:43:21.424Z,101093.38
2023-01-06T07:45:48.438Z,101090.16
2023-01-06T07:48:15.217Z,101090.16
2023-01-06T07:50:42.977Z,101094.88
2023-01-06T07:53:09.841Z,101093.88
2023-01-06T07:55:36.598Z,101100.53
2023-01-06T07:58:07.544Z,101101.38
2023-01-06T08:00:35.020Z,101107.69
2023-01-06T08:03:06.589Z,101116.69
2023-01-06T08:05:37.438Z,101113.28
2023-01-06T08:08:04.056Z,101119.41
2023-01-06T08:10:32.835Z,101116.38
2023-01-06T08:13:00.531Z,101106.84
2023-01-06T08:15:27.058Z,101118.25
2023-01-06T08:17:54.686Z,101118.44
2023-01-06T08:20:24.768Z,101125.59
2023-01-06T08:22:51.268Z,101119.81
2023-01-06T08:25:17.892Z,101116.41
2023-01-06T08:27:44.529Z,101111.47
2023-01-06T08:30:16.650Z,101113.59
2023-01-06T08:32:47.991Z,101126.53
2023-01-06T08:35:14.640Z,101126.69
2023-01-06T08:37:41.141Z,101130.78
2023-01-06T08:40:10.442Z,101123.13
2023-01-06T08:42:36.894Z,101123.84
2023-01-06T08:45:03.606Z,101122.63
2023-01-06T08:47:30.015Z,101125.34
2023-01-06T08:49:59.034Z,101126.88
2023-01-06T08:52:25.404Z,101121.63
2023-01-06T08:54:51.945Z,101129.47
2023-01-06T08:57:18.488Z,101131.16
2023-01-06T08:59:44.941Z,101124.50
2023-01-06T09:02:11.947Z,101115.63
2023-01-06T09:04:38.820Z,101112.41
2023-01-06T09:07:05.213Z,101120.09
2023-01-06T09:09:32.492Z,101116.16
2023-01-06T09:11:58.917Z,101105.25
2023-01-06T09:14:25.377Z,101107.63
2023-01-06T09:16:51.922Z,101113.78
2023-01-06T09:19:20.390Z,101110.53
2023-01-06T09:21:46.872Z,101110.84
2023-01-06T09:24:15.579Z,101110.34
2023-01-06T09:26:42.054Z,101105.03
2023-01-06T09:29:11.007Z,101106.41
2023-01-06T09:31:37.733Z,101108.75
2023-01-06T09:34:04.194Z,101101.59
2023-01-06T09:36:31.298Z,101103.78
2023-01-06T09:38:57.673Z,101107.22
2023-01-06T09:41:34.623Z,101100.38
2023-01-06T09:44:11.209Z,101092.13
2023-01-06T09:46:40.635Z,101104.41
2023-01-06T09:49:25.586Z,101116.56
2023-01-06T09:51:56.543Z,101124.59
2023-01-06T09:54:28.613Z,101125.97
2023-01-06T09:57:03.632Z,101133.94
2023-01-06T09:59:57.430Z,101122.88
2023-01-06T10:02:49.918Z,101129.31
2023-01-06T10:05:19.392Z,101125.88
2023-01-06T10:08:03.515Z,101120.75
2023-01-06T10:10:44.882Z,101119.00
2023-01-06T10:13:23.442Z,101126.03
2023-01-06T10:16:29.257Z,101121.38
2023-01-06T10:19:09.137Z,101106.53
2023-01-06T10:21:42.492Z,101113.34
2023-01-06T10:24:33.831Z,101114.38
2023-01-06T10:27:20.875Z,101115.41
2023-01-06T10:29:49.995Z,101111.81
2023-01-06T10:32:17.430Z,101127.72
2023-01-06T10:34:52.121Z,101119.69
2023-01-06T10:37:44.318Z,101127.88
2023-01-06T10:40:14.388Z,101123.59
2023-01-06T10:43:11.510Z,101132.31
2023-01-06T10:45:44.581Z,101122.25
2023-01-06T10:48:15.387Z,101119.72
2023-01-06T10:50:42.241Z,101123.81
2023-01-06T10:53:13.146Z,101122.28
2023-01-06T10:55:39.729Z,101120.59
2023-01-06T10:58:27.367Z,101118.03
2023-01-06T11:00:56.450Z,101113.09
2023-01-06T11:03:33.392Z,101113.44
2023-01-06T11:06:27.722Z,101107.97
2023-01-06T11:08:54.801Z,101120.28
2023-01-06T11:11:28.076Z,101109.56
2023-01-06T11:14:02.779Z,101109.88
2023-01-06T11:16:32.345Z,101110.94
2023-01-06T11:19:05.650Z,101121.00
2023-01-06T11:21:44.227Z,101119.97
2023-01-06T11:24:19.923Z,101110.22
2023-01-06T11:27:01.068Z,101120.63
2023-01-06T11:29:38.200Z,101101.31
2023-01-06T11:32:12.424Z,101112.41
2023-01-06T11:34:38.915Z,101099.59
2023-01-06T11:37:05.886Z,101101.97
2023-01-06T11:39:35.849Z,101096.13
2023-01-06T11:42:09.528Z,101108.09
2023-01-06T11:44:39.062Z,101094.44
2023-01-06T11:47:18.823Z,101086.22
2023-01-06T11:49:54.382Z,101087.63
2023-01-06T11:52:27.316Z,101079.97
2023-01-06T11:55:07.351Z,101082.53
2023-01-06T11:57:42.215Z,101076.72
2023-01-06T12:00:32.480Z,101077.09
2023-01-06T12:03:10.903Z,101072.84
2023-01-06T12:05:58.754Z,101061.06
2023-01-06T12:08:34.970Z,101058.69
2023-01-06T12:11:14.617Z,101061.94
2023-01-06T12:13:45.009Z,101056.31
2023-01-06T12:16:39.090Z,101054.59
2023-01-06T12:19:22.589Z,101059.06
2023-01-06T12:21:53.380Z,101053.22
2023-01-06T12:24:26.922Z,101058.50
2023-01-06T12:26:53.710Z,101048.25
2023-01-06T12:29:21.755Z,101045.38
2023-01-06T12:32:19.619Z,101040.94
2023-01-06T12:34:50.002Z,101039.19
2023-01-06T12:37:20.934Z,101039.44
2023-01-06T12:39:59.145Z,101044.72
2023-01-06T12:42:35.329Z,101042.81
2023-01-06T12:45:19.322Z,101044.47
2023-01-06T12:47:54.914Z,101052.69
2023-01-06T12:50:21.474Z,101053.78
2023-01-06T12:52:55.973Z,101056.16
2023-01-06T12:55:41.107Z,101046.44
2023-01-06T12:58:32.358Z,101051.03
2023-01-06T13:01:05.645Z,101046.44
2023-01-06T13:03:34.538Z,101048.97
2023-01-06T13:06:19.885Z,101057.00
2023-01-06T13:09:27.955Z,101063.47
2023-01-06T13:12:17.619Z,101054.25
2023-01-06T13:15:05.627Z,101061.59
2023-01-06T13:18:00.520Z,101061.97
2023-01-06T13:20:39.605Z,101062.31
2023-01-06T13:23:21.306Z,101065.03
2023-01-06T13:26:23.105Z,101057.88
2023-01-06T13:29:26.984Z,101056.69
2023-01-06T13:32:19.329Z,101052.75
2023-01-06T13:35:10.087Z,101047.47
2023-01-06T13:37:43.635Z,101047.31
2023-01-06T13:40:22.473Z,101061.13
2023-01-06T13:42:59.312Z,101050.19
2023-01-06T13:45:35.892Z,101049.19
2023-01-06T13:48:10.497Z,101063.38
2023-01-06T13:50:39.022Z,101061.00
2023-01-06T13:53:06.601Z,101069.88
2023-01-06T13:55:38.776Z,101075.69
2023-01-06T13:58:23.921Z,101067.22
2023-01-06T14:01:08.284Z,101067.53
2023-01-06T14:03:35.657Z,101070.63
2023-01-06T14:06:04.071Z,101064.50
2023-01-06T14:08:38.581Z,101071.00
2023-01-06T14:11:31.866Z,101067.06
2023-01-06T14:14:00.415Z,101061.13
2023-01-06T14:16:40.371Z,101069.31
2023-01-06T14:19:09.659Z,101072.22
2023-01-06T14:21:36.294Z,101076.13
2023-01-06T14:24:04.469Z,101076.13
2023-01-06T14:27:02.465Z,101083.66
2023-01-06T14:29:44.287Z,101076.69
2023-01-06T14:32:20.833Z,101077.72
2023-01-06T14:35:09.778Z,101074.47
2023-01-06T14:37:47.604Z,101071.06
2023-01-06T14:40:24.793Z,101070.75
2023-01-06T14:42:52.138Z,101067.69
2023-01-06T14:45:34.012Z,101065.66
2023-01-06T14:48:05.880Z,101083.69
2023-01-06T14:50:46.496Z,101070.41
2023-01-06T14:53:42.900Z,101074.34
2023-01-06T14:56:19.339Z,101080.47
2023-01-06T14:58:48.239Z,101069.91
2023-01-06T15:01:27.264Z,101073.84
2023-01-06T15:03:58.693Z,101077.25
2023-01-06T15:06:27.202Z,101072.47
2023-01-06T15:08:55.536Z,101072.81
2023-01-06T15:11:33.342Z,101076.94
2023-01-06T15:13:59.819Z,101074.22
2023-01-06T15:16:40.117Z,101083.56
2023-01-06T15:19:15.221Z,101082.41
2023-01-06T15:21:47.128Z,101091.75
2023-01-06T15:24:20.955Z,101090.56
2023-01-06T15:26:47.900Z,101091.75
2023-01-06T15:29:18.404Z,101085.63
2023-01-06T15:31:46.724Z,101088.53
2023-01-06T15:34:17.883Z,101090.94
2023-01-06T15:36:46.941Z,101090.09
2023-01-06T15:39:26.887Z,101089.22
2023-01-06T15:41:55.313Z,101085.47
2023-01-06T15:44:21.719Z,101088.00
2023-01-06T15:46:51.189Z,101078.81
2023-01-06T15:49:30.178Z,101089.72
2023-01-06T15:52:01.763Z,101085.47
2023-01-06T15:54:30.955Z,101085.28
2023-01-06T15:57:15.267Z,101077.47
2023-01-06T15:59:52.100Z,101075.94
2023-01-06T16:02:22.722Z,101073.22
2023-01-06T16:04:51.146Z,101066.03
2023-01-06T16:07:39.200Z,101060.94
2023-01-06T16:10:37.249Z,101057.72
2023-01-06T16:13:19.404Z,101051.56
2023-01-06T16:15:53.506Z,101055.00
2023-01-06T16:18:32.807Z,101056.03
2023-01-06T16:21:01.049Z,101055.50
2023-01-06T16:23:34.691Z,101058.06
2023-01-06T16:26:19.781Z,101061.28
2023-01-06T16:28:51.703Z,101067.59
2023-01-06T16:31:47.781Z,101070.66
2023-01-06T16:34:27.217Z,101077.13
2023-01-06T16:37:01.144Z,101074.75
2023-01-06T16:39:28.987Z,101083.94
2023-01-06T16:42:01.226Z,101079.69
2023-01-06T16:44:31.862Z,101087.03
2023-01-06T16:46:59.897Z,101089.56
2023-01-06T16:49:26.518Z,101090.91
2023-01-06T16:51:56.620Z,101095.03
2023-01-06T16:54:23.377Z,101096.91
2023-01-06T16:56:51.984Z,101094.50
2023-01-06T16:59:21.286Z,101099.81
2023-01-06T17:01:48.299Z,101096.72
2023-01-06T17:04:15.497Z,101094.00
2023-01-06T17:06:44.507Z,101097.75
2023-01-06T17:09:18.605Z,101099.09
2023-01-06T17:11:48.112Z,101085.66
2023-01-06T17:14:19.686Z,101093.84
2023-01-06T17:16:51.286Z,101094.19
2023-01-06T17:19:28.575Z,101097.06
2023-01-06T17:22:04.836Z,101096.06
2023-01-06T17:24:31.388Z,101097.41
2023-01-06T17:27:00.703Z,101088.75
2023-01-06T17:29:32.947Z,101088.19
2023-01-06T17:32:02.424Z,101080.88
2023-01-06T17:34:34.085Z,101084.66
2023-01-06T17:37:22.871Z,101088.91
2023-01-06T17:39:52.196Z,101089.91
2023-01-06T17:42:32.939Z,101097.75
2023-01-06T17:45:00.691Z,101097.06
2023-01-06T17:47:40.450Z,101099.81
2023-01-06T17:50:35.067Z,101107.28
2023-01-06T17:53:50.824Z,101101.50
2023-01-06T17:56:18.602Z,101104.25
2023-01-06T17:58:45.733Z,101104.25
2023-01-06T18:01:25.517Z,101111.56
2023-01-06T18:03:59.649Z,101112.41
2023-01-06T18:06:41.926Z,101120.59
2023-01-06T18:09:12.441Z,101124.19
2023-01-06T18:11:46.268Z,101117.16
2023-01-06T18:14:22.467Z,101112.56
2023-01-06T18:16:56.927Z,101109.84
2023-01-06T18:19:37.213Z,101109.69
2023-01-06T18:22:22.228Z,101113.44
2023-01-06T18:25:01.292Z,101116.16
2023-01-06T18:27:33.388Z,101113.44
2023-01-06T18:30:14.872Z,101114.44
2023-01-06T18:32:43.293Z,101116.00
2023-01-06T18:35:21.441Z,101114.44
2023-01-06T18:37:48.706Z,101114.09
2023-01-06T18:40:24.232Z,101108.13
2023-01-06T18:42:52.347Z,101108.13
2023-01-06T18:45:22.133Z,101092.97
2023-01-06T18:47:59.873Z,101099.28
2023-01-06T18:50:49.539Z,101106.59
2023-01-06T18:53:23.140Z,101109.84
2023-01-06T18:55:51.500Z,101107.31
2023-01-06T18:58:41.292Z,101112.03
2023-01-06T19:01:19.541Z,101110.03
2023-01-06T19:03:51.685Z,101118.00
2023-01-06T19:06:18.004Z,101113.41
2023-01-06T19:08:50.044Z,101117.16
2023-01-06T19:11:19.495Z,101114.63
2023-01-06T19:13:47.070Z,101109.84
2023-01-06T19:16:47.413Z,101108.13
2023-01-06T19:19:24.340Z,101111.38
2023-01-06T19:21:53.018Z,101100.97
2023-01-06T19:24:28.548Z,101105.22
2023-01-06T19:27:01.089Z,101102.97
2023-01-06T19:29:35.051Z,101101.63
2023-01-06T19:32:14.120Z,101113.88
2023-01-06T19:34:41.012Z,101116.25
2023-01-06T19:37:17.228Z,101109.97
2023-01-06T19:39:53.222Z,101110.81
2023-01-06T19:42:28.729Z,101106.53
2023-01-06T19:45:00.056Z,101103.31
2023-01-06T19:47:31.437Z,101108.75
2023-01-06T19:50:11.643Z,101106.88
2023-01-06T19:52:40.230Z,101115.25
2023-01-06T19:55:21.289Z,101110.81
2023-01-06T19:57:54.624Z,101115.41
2023-01-06T20:00:29.138Z,101109.09
2023-01-06T20:02:58.792Z,101106.22
2023-01-06T20:05:27.551Z,101107.91
2023-01-06T20:07:58.177Z,101101.63
2023-01-06T20:10:24.547Z,101113.03
2023-01-06T20:12:50.892Z,101108.09
2023-01-06T20:15:20.854Z,101115.41
2023-01-06T20:17:47.453Z,101101.94
2023-01-06T20:20:14.318Z,101104.84
2023-01-06T20:22:44.719Z,101111.16
2023-01-06T20:25:13.763Z,101099.91
2023-01-06T20:27:40.197Z,101095.31
2023-01-06T20:30:06.946Z,101104.50
2023-01-06T20:32:36.955Z,101104.00
2023-01-06T20:35:06.734Z,101112.31
2023-01-06T20:37:33.118Z,101104.34
2023-01-06T20:39:59.647Z,101112.66
2023-01-06T20:42:26.438Z,101100.91
2023-01-06T20:44:52.777Z,101107.22
2023-01-06T20:47:21.641Z,101105.84
2023-01-06T20:49:48.529Z,101101.72
2023-01-06T20:52:15.081Z,101106.50
2023-01-06T20:54:43.867Z,101106.84
2023-01-06T20:57:12.774Z,101108.88
2023-01-06T20:59:39.200Z,101101.91
2023-01-06T21:02:07.168Z,101104.63
2023-01-06T21:04:34.513Z,101106.63
2023-01-06T21:07:00.986Z,101109.53
2023-01-06T21:09:29.383Z,101112.59
2023-01-06T21:11:56.430Z,101101.53
2023-01-06T21:14:22.843Z,101096.28
2023-01-06T21:16:49.958Z,101089.78
2023-01-06T21:19:16.954Z,101087.25
2023-01-06T21:21:43.318Z,101090.13
2023-01-06T21:24:10.214Z,101086.53
2023-01-06T21:26:39.386Z,101090.13
2023-01-06T21:29:05.882Z,101092.16
2023-01-06T21:31:32.391Z,101083.16
2023-01-06T21:33:58.741Z,101082.97
2023-01-06T21:36:27.487Z,101089.75
2023-01-06T21:38:53.980Z,101089.94
2023-01-06T21:41:38.904Z,101084.50
2023-01-06T21:44:06.123Z,101083.63
2023-01-06T21:46:32.633Z,101076.47
2023-01-06T21:48:59.160Z,101087.38
2023-01-06T21:51:29.188Z,101073.75
2023-01-06T21:53:58.118Z,101082.09
2023-01-06T21:56:24.529Z,101088.41
2023-01-06T21:58:51.105Z,101080.22
2023-01-06T22:01:19.119Z,101079.03
2023-01-06T22:03:47.919Z,101079.91
2023-01-06T22:06:15.888Z,101079.91
2023-01-06T22:08:42.450Z,101078.19
2023-01-06T22:11:08.896Z,101068.31
2023-01-06T22:13:39.595Z,101078.53
2023-01-06T22:16:06.879Z,101073.22
2023-01-06T22:18:34.229Z,101074.94
2023-01-06T22:21:01.993Z,101073.41
2023-01-06T22:23:31.170Z,101075.09
2023-01-06T22:25:57.526Z,101076.13
2023-01-06T22:28:27.802Z,101072.38
2023-01-06T22:30:57.003Z,101082.59
2023-01-06T22:33:24.124Z,101073.41
2023-01-06T22:35:50.571Z,101083.44
2023-01-06T22:38:17.098Z,101073.72
2023-01-06T22:40:43.516Z,101080.19
2023-01-06T22:43:10.007Z,101077.28
2023-01-06T22:45:36.836Z,101069.31
2023-01-06T22:48:03.693Z,101072.03
2023-01-06T22:50:31.003Z,101076.63
2023-01-06T22:52:57.377Z,101072.03
2023-01-06T22:55:24.152Z,101074.75
2023-01-06T22:57:51.061Z,101073.72
2023-01-06T23:00:19.057Z,101072.91
2023-01-06T23:02:45.695Z,101089.91
2023-01-06T23:05:15.276Z,101074.56
2023-01-06T23:07:42.917Z,101075.28
2023-01-06T23:10:12.042Z,101070.69
2023-01-06T23:12:40.165Z,101068.97
2023-01-06T23:15:07.658Z,101076.28
2023-01-06T23:17:36.813Z,101073.72
2023-01-06T23:20:07.631Z,101067.44
2023-01-06T23:22:34.018Z,101070.31
2023-01-06T23:25:00.376Z,101067.75
2023-01-06T23:27:31.341Z,101070.47
2023-01-06T23:29:58.124Z,101066.06
2023-01-06T23:32:27.061Z,101077.13
2023-01-06T23:34:53.501Z,101065.22
2023-01-06T23:37:22.643Z,101063.34
2023-01-06T23:39:53.192Z,101052.75
2023-01-06T23:42:21.951Z,101059.91
2023-01-06T23:44:48.344Z,101053.63
2023-01-06T23:47:14.846Z,101049.03
2023-01-06T23:49:41.286Z,101048.53
2023-01-06T23:52:09.986Z,101052.28
2023-01-06T23:54:36.376Z,101056.88
2023-01-06T23:57:03.310Z,101052.28
2023-01-06T23:59:34.393Z,101049.22
